Terminal Aerodrome Forecast
Issued by NWS

Current Version | Previous Version | Text Only | Print | Product List | Glossary On
Versions: 1 2 3 4 5 6 7 8 9 10 11 12 13 14 15 16 17 18 19 20 21 22
000
FTUS45 KRIW 241120
TAFCPR
TAF
KCPR 241120Z 2412/2512 VRB05KT P6SM VCFG SCT009 SCT110
      TEMPO 2412/2415 4SM BR BKN009
     FM241600 26006KT P6SM FEW015
     FM241900 23012KT P6SM SCT250
     FM250300 23011KT P6SM BKN200=

USA.gov is the U.S. government's official web portal to all federal, state and local government web resources and services.